sensor_id;sensor_type;location;lat;lon;timestamp;temperature;humidity
36384;DHT22;22418;51.210;6.976;2023-07-16T00:00:54;20.20;99.90
36384;DHT22;22418;51.210;6.976;2023-07-16T00:03:25;20.20;99.90
36384;DHT22;22418;51.210;6.976;2023-07-16T00:05:55;20.10;99.90
36384;DHT22;22418;51.210;6.976;2023-07-16T00:08:26;20.10;99.90
36384;DHT22;22418;51.210;6.976;2023-07-16T00:10:57;20.20;99.90
36384;DHT22;22418;51.210;6.976;2023-07-16T00:13:27;20.20;99.90
36384;DHT22;22418;51.210;6.976;2023-07-16T00:15:58;20.20;99.90
36384;DHT22;22418;51.210;6.976;2023-07-16T00:18:29;20.20;99.90
36384;DHT22;22418;51.210;6.976;2023-07-16T00:20:59;20.20;99.90
36384;DHT22;22418;51.210;6.976;2023-07-16T00:23:30;20.20;99.90
36384;DHT22;22418;51.210;6.976;2023-07-16T00:26:00;20.20;99.90
36384;DHT22;22418;51.210;6.976;2023-07-16T00:28:31;20.30;99.90
36384;DHT22;22418;51.210;6.976;2023-07-16T00:31:02;20.30;99.90
36384;DHT22;22418;51.210;6.976;2023-07-16T00:33:32;20.30;99.90
36384;DHT22;22418;51.210;6.976;2023-07-16T00:36:03;20.30;99.90
36384;DHT22;22418;51.210;6.976;2023-07-16T00:38:33;20.30;99.90
36384;DHT22;22418;51.210;6.976;2023-07-16T00:41:04;20.30;99.90
36384;DHT22;22418;51.210;6.976;2023-07-16T00:43:34;20.20;99.90
36384;DHT22;22418;51.210;6.976;2023-07-16T00:46:05;20.20;99.90
36384;DHT22;22418;51.210;6.976;2023-07-16T00:48:36;20.20;99.90
36384;DHT22;22418;51.210;6.976;2023-07-16T00:51:07;20.10;99.90
36384;DHT22;22418;51.210;6.976;2023-07-16T00:53:38;20.10;99.90
36384;DHT22;22418;51.210;6.976;2023-07-16T00:56:11;20.00;99.90
36384;DHT22;22418;51.210;6.976;2023-07-16T00:58:46;20.00;99.90
36384;DHT22;22418;51.210;6.976;2023-07-16T01:01:16;19.90;99.90
36384;DHT22;22418;51.210;6.976;2023-07-16T01:03:47;19.90;99.90
36384;DHT22;22418;51.210;6.976;2023-07-16T01:06:25;19.90;99.90
36384;DHT22;22418;51.210;6.976;2023-07-16T01:09:01;19.80;99.90
36384;DHT22;22418;51.210;6.976;2023-07-16T01:11:34;19.80;99.90
36384;DHT22;22418;51.210;6.976;2023-07-16T01:14:07;19.80;99.90
36384;DHT22;22418;51.210;6.976;2023-07-16T01:16:38;19.80;99.90
36384;DHT22;22418;51.210;6.976;2023-07-16T01:19:09;19.80;99.90
36384;DHT22;22418;51.210;6.976;2023-07-16T01:21:51;19.90;99.90
36384;DHT22;22418;51.210;6.976;2023-07-16T01:28:06;19.90;99.90
36384;DHT22;22418;51.210;6.976;2023-07-16T01:30:41;20.00;99.90
36384;DHT22;22418;51.210;6.976;2023-07-16T01:33:16;20.10;99.90
36384;DHT22;22418;51.210;6.976;2023-07-16T01:35:48;20.10;99.90
36384;DHT22;22418;51.210;6.976;2023-07-16T01:38:18;20.10;99.90
36384;DHT22;22418;51.210;6.976;2023-07-16T01:40:51;20.10;99.90
36384;DHT22;22418;51.210;6.976;2023-07-16T01:43:21;20.10;99.90
36384;DHT22;22418;51.210;6.976;2023-07-16T01:45:52;20.10;99.90
36384;DHT22;22418;51.210;6.976;2023-07-16T01:51:00;20.10;99.90
36384;DHT22;22418;51.210;6.976;2023-07-16T01:53:30;20.10;99.90
36384;DHT22;22418;51.210;6.976;2023-07-16T01:56:04;20.10;99.90
36384;DHT22;22418;51.210;6.976;2023-07-16T01:58:34;20.10;99.90
36384;DHT22;22418;51.210;6.976;2023-07-16T02:01:05;20.00;99.90
36384;DHT22;22418;51.210;6.976;2023-07-16T02:03:36;20.00;99.90
36384;DHT22;22418;51.210;6.976;2023-07-16T02:06:06;19.90;99.90
36384;DHT22;22418;51.210;6.976;2023-07-16T02:08:37;19.90;99.90
36384;DHT22;22418;51.210;6.976;2023-07-16T02:11:07;19.90;99.90
36384;DHT22;22418;51.210;6.976;2023-07-16T02:13:38;19.80;99.90
36384;DHT22;22418;51.210;6.976;2023-07-16T02:16:08;19.90;99.90
36384;DHT22;22418;51.210;6.976;2023-07-16T02:18:39;19.90;99.90
36384;DHT22;22418;51.210;6.976;2023-07-16T02:21:09;19.80;99.90
36384;DHT22;22418;51.210;6.976;2023-07-16T02:23:40;19.80;99.90
36384;DHT22;22418;51.210;6.976;2023-07-16T02:26:10;19.80;99.90
36384;DHT22;22418;51.210;6.976;2023-07-16T02:28:41;19.90;99.90
36384;DHT22;22418;51.210;6.976;2023-07-16T02:31:11;19.80;99.90
36384;DHT22;22418;51.210;6.976;2023-07-16T02:33:42;19.80;99.90
36384;DHT22;22418;51.210;6.976;2023-07-16T02:36:12;19.80;99.90
36384;DHT22;22418;51.210;6.976;2023-07-16T02:38:43;19.70;99.90
36384;DHT22;22418;51.210;6.976;2023-07-16T02:41:13;19.70;99.90
36384;DHT22;22418;51.210;6.976;2023-07-16T02:43:46;19.70;99.90
36384;DHT22;22418;51.210;6.976;2023-07-16T02:46:16;19.60;99.90
36384;DHT22;22418;51.210;6.976;2023-07-16T02:48:47;19.60;99.90
36384;DHT22;22418;51.210;6.976;2023-07-16T02:51:17;19.50;99.90
36384;DHT22;22418;51.210;6.976;2023-07-16T02:53:48;19.50;99.90
36384;DHT22;22418;51.210;6.976;2023-07-16T02:56:19;19.40;99.90
36384;DHT22;22418;51.210;6.976;2023-07-16T02:58:49;19.40;99.90
36384;DHT22;22418;51.210;6.976;2023-07-16T03:01:20;19.30;99.90
36384;DHT22;22418;51.210;6.976;2023-07-16T03:03:51;19.30;99.90
36384;DHT22;22418;51.210;6.976;2023-07-16T03:06:21;19.20;99.90
36384;DHT22;22418;51.210;6.976;2023-07-16T03:08:52;19.20;99.90
36384;DHT22;22418;51.210;6.976;2023-07-16T03:11:22;19.20;99.90
36384;DHT22;22418;51.210;6.976;2023-07-16T03:13:53;19.20;99.90
36384;DHT22;22418;51.210;6.976;2023-07-16T03:16:24;19.10;99.90
36384;DHT22;22418;51.210;6.976;2023-07-16T03:18:54;19.20;99.90
36384;DHT22;22418;51.210;6.976;2023-07-16T03:21:25;19.10;99.90
36384;DHT22;22418;51.210;6.976;2023-07-16T03:23:55;19.10;99.90
36384;DHT22;22418;51.210;6.976;2023-07-16T03:26:26;19.10;99.90
36384;DHT22;22418;51.210;6.976;2023-07-16T03:28:56;19.00;99.90
36384;DHT22;22418;51.210;6.976;2023-07-16T03:31:27;19.00;99.90
36384;DHT22;22418;51.210;6.976;2023-07-16T03:33:57;19.00;99.90
36384;DHT22;22418;51.210;6.976;2023-07-16T03:36:28;19.00;99.90
36384;DHT22;22418;51.210;6.976;2023-07-16T03:38:59;19.00;99.90
36384;DHT22;22418;51.210;6.976;2023-07-16T03:41:29;19.00;99.90
36384;DHT22;22418;51.210;6.976;2023-07-16T03:44:00;19.00;99.90
36384;DHT22;22418;51.210;6.976;2023-07-16T03:46:30;19.00;99.90
36384;DHT22;22418;51.210;6.976;2023-07-16T03:49:01;19.00;99.90
36384;DHT22;22418;51.210;6.976;2023-07-16T03:51:31;19.10;99.90
36384;DHT22;22418;51.210;6.976;2023-07-16T03:54:02;19.00;99.90
36384;DHT22;22418;51.210;6.976;2023-07-16T03:56:33;19.00;99.90
36384;DHT22;22418;51.210;6.976;2023-07-16T03:59:03;19.00;99.90
36384;DHT22;22418;51.210;6.976;2023-07-16T04:01:34;19.00;99.90
36384;DHT22;22418;51.210;6.976;2023-07-16T04:04:05;19.00;99.90
36384;DHT22;22418;51.210;6.976;2023-07-16T04:06:35;19.00;99.90
36384;DHT22;22418;51.210;6.976;2023-07-16T04:09:06;19.00;99.90
36384;DHT22;22418;51.210;6.976;2023-07-16T04:11:37;19.10;99.90
36384;DHT22;22418;51.210;6.976;2023-07-16T04:14:07;19.10;99.90
36384;DHT22;22418;51.210;6.976;2023-07-16T04:16:38;19.10;99.90
36384;DHT22;22418;51.210;6.976;2023-07-16T04:19:08;19.20;99.90
36384;DHT22;22418;51.210;6.976;2023-07-16T04:21:39;19.30;99.90
36384;DHT22;22418;51.210;6.976;2023-07-16T04:24:10;19.30;99.90
36384;DHT22;22418;51.210;6.976;2023-07-16T04:26:40;19.40;99.90
36384;DHT22;22418;51.210;6.976;2023-07-16T04:29:11;19.40;99.90
36384;DHT22;22418;51.210;6.976;2023-07-16T04:31:41;19.40;99.90
36384;DHT22;22418;51.210;6.976;2023-07-16T04:34:12;19.50;99.90
36384;DHT22;22418;51.210;6.976;2023-07-16T04:36:44;19.70;99.90
36384;DHT22;22418;51.210;6.976;2023-07-16T04:39:14;19.90;99.90
36384;DHT22;22418;51.210;6.976;2023-07-16T04:41:45;20.10;99.90
36384;DHT22;22418;51.210;6.976;2023-07-16T04:44:15;20.20;99.90
36384;DHT22;22418;51.210;6.976;2023-07-16T04:46:46;20.50;99.90
36384;DHT22;22418;51.210;6.976;2023-07-16T04:49:16;20.90;99.90
36384;DHT22;22418;51.210;6.976;2023-07-16T04:51:47;21.30;99.90
36384;DHT22;22418;51.210;6.976;2023-07-16T04:54:17;21.90;99.90
36384;DHT22;22418;51.210;6.976;2023-07-16T04:56:48;22.40;99.90
36384;DHT22;22418;51.210;6.976;2023-07-16T04:59:19;22.50;99.90
36384;DHT22;22418;51.210;6.976;2023-07-16T05:01:49;22.50;99.90
36384;DHT22;22418;51.210;6.976;2023-07-16T05:04:20;22.50;99.90
36384;DHT22;22418;51.210;6.976;2023-07-16T05:06:51;22.50;99.90
36384;DHT22;22418;51.210;6.976;2023-07-16T05:09:22;22.60;99.90
36384;DHT22;22418;51.210;6.976;2023-07-16T05:11:52;22.70;99.90
36384;DHT22;22418;51.210;6.976;2023-07-16T05:14:26;23.00;99.90
36384;DHT22;22418;51.210;6.976;2023-07-16T05:16:57;23.40;99.90
36384;DHT22;22418;51.210;6.976;2023-07-16T05:19:27;23.60;99.90
36384;DHT22;22418;51.210;6.976;2023-07-16T05:21:58;23.70;99.90
36384;DHT22;22418;51.210;6.976;2023-07-16T05:24:28;24.20;99.90
36384;DHT22;22418;51.210;6.976;2023-07-16T05:26:59;24.50;99.90
36384;DHT22;22418;51.210;6.976;2023-07-16T05:29:29;24.60;99.90
36384;DHT22;22418;51.210;6.976;2023-07-16T05:32:00;24.90;99.90
36384;DHT22;22418;51.210;6.976;2023-07-16T05:34:30;24.70;99.90
36384;DHT22;22418;51.210;6.976;2023-07-16T05:37:01;24.20;99.90
36384;DHT22;22418;51.210;6.976;2023-07-16T05:39:32;24.50;99.90
36384;DHT22;22418;51.210;6.976;2023-07-16T05:42:02;25.40;99.90
36384;DHT22;22418;51.210;6.976;2023-07-16T05:44:33;26.70;98.80
36384;DHT22;22418;51.210;6.976;2023-07-16T05:47:04;27.10;97.80
36384;DHT22;22418;51.210;6.976;2023-07-16T05:49:35;27.30;97.30
36384;DHT22;22418;51.210;6.976;2023-07-16T05:52:06;27.30;96.80
36384;DHT22;22418;51.210;6.976;2023-07-16T05:54:36;27.00;96.50
36384;DHT22;22418;51.210;6.976;2023-07-16T05:57:07;26.90;97.00
36384;DHT22;22418;51.210;6.976;2023-07-16T05:59:37;27.00;96.20
36384;DHT22;22418;51.210;6.976;2023-07-16T06:02:08;26.70;96.10
36384;DHT22;22418;51.210;6.976;2023-07-16T06:04:39;26.60;95.90
36384;DHT22;22418;51.210;6.976;2023-07-16T06:07:09;26.40;96.30
36384;DHT22;22418;51.210;6.976;2023-07-16T06:09:40;26.50;96.60
36384;DHT22;22418;51.210;6.976;2023-07-16T06:12:10;27.60;94.70
36384;DHT22;22418;51.210;6.976;2023-07-16T06:14:41;28.50;94.10
36384;DHT22;22418;51.210;6.976;2023-07-16T06:17:11;29.70;92.60
36384;DHT22;22418;51.210;6.976;2023-07-16T06:19:42;30.70;90.80
36384;DHT22;22418;51.210;6.976;2023-07-16T06:22:13;31.20;89.00
36384;DHT22;22418;51.210;6.976;2023-07-16T06:24:43;31.10;88.10
36384;DHT22;22418;51.210;6.976;2023-07-16T06:27:14;32.10;85.60
36384;DHT22;22418;51.210;6.976;2023-07-16T06:29:45;34.10;80.60
36384;DHT22;22418;51.210;6.976;2023-07-16T06:32:15;34.30;75.00
36384;DHT22;22418;51.210;6.976;2023-07-16T06:34:46;33.70;74.20
36384;DHT22;22418;51.210;6.976;2023-07-16T06:37:16;33.90;73.30
36384;DHT22;22418;51.210;6.976;2023-07-16T06:39:47;34.80;71.00
36384;DHT22;22418;51.210;6.976;2023-07-16T06:42:17;35.40;69.40
36384;DHT22;22418;51.210;6.976;2023-07-16T06:44:48;36.10;66.70
36384;DHT22;22418;51.210;6.976;2023-07-16T06:47:18;35.90;65.60
36384;DHT22;22418;51.210;6.976;2023-07-16T06:49:49;37.40;62.60
36384;DHT22;22418;51.210;6.976;2023-07-16T06:52:23;37.60;61.60
36384;DHT22;22418;51.210;6.976;2023-07-16T06:54:57;37.90;60.30
36384;DHT22;22418;51.210;6.976;2023-07-16T06:57:28;37.30;59.60
36384;DHT22;22418;51.210;6.976;2023-07-16T06:59:59;37.70;59.40
36384;DHT22;22418;51.210;6.976;2023-07-16T07:02:29;38.60;57.40
36384;DHT22;22418;51.210;6.976;2023-07-16T07:05:00;38.50;56.60
36384;DHT22;22418;51.210;6.976;2023-07-16T07:07:30;37.80;56.90
36384;DHT22;22418;51.210;6.976;2023-07-16T07:10:01;36.80;56.90
36384;DHT22;22418;51.210;6.976;2023-07-16T07:12:32;36.40;57.10
36384;DHT22;22418;51.210;6.976;2023-07-16T07:15:08;34.80;58.90
36384;DHT22;22418;51.210;6.976;2023-07-16T07:17:39;34.30;59.40
36384;DHT22;22418;51.210;6.976;2023-07-16T07:20:10;33.70;60.40
36384;DHT22;22418;51.210;6.976;2023-07-16T07:22:41;34.10;59.80
36384;DHT22;22418;51.210;6.976;2023-07-16T07:25:11;33.80;61.00
36384;DHT22;22418;51.210;6.976;2023-07-16T07:27:42;33.10;61.00
36384;DHT22;22418;51.210;6.976;2023-07-16T07:30:12;32.70;61.60
36384;DHT22;22418;51.210;6.976;2023-07-16T07:32:43;32.80;61.30
36384;DHT22;22418;51.210;6.976;2023-07-16T07:35:13;33.00;60.90
36384;DHT22;22418;51.210;6.976;2023-07-16T07:37:44;32.60;61.20
36384;DHT22;22418;51.210;6.976;2023-07-16T07:40:15;32.80;60.90
36384;DHT22;22418;51.210;6.976;2023-07-16T07:42:45;32.60;61.60
36384;DHT22;22418;51.210;6.976;2023-07-16T07:45:16;32.00;62.20
36384;DHT22;22418;51.210;6.976;2023-07-16T07:47:46;31.60;62.40
36384;DHT22;22418;51.210;6.976;2023-07-16T07:50:17;31.40;62.80
36384;DHT22;22418;51.210;6.976;2023-07-16T07:52:48;31.00;63.70
36384;DHT22;22418;51.210;6.976;2023-07-16T07:55:18;31.00;63.80
36384;DHT22;22418;51.210;6.976;2023-07-16T07:57:49;30.30;64.30
36384;DHT22;22418;51.210;6.976;2023-07-16T08:00:19;29.90;65.40
36384;DHT22;22418;51.210;6.976;2023-07-16T08:02:50;29.50;65.40
36384;DHT22;22418;51.210;6.976;2023-07-16T08:05:21;29.30;66.10
36384;DHT22;22418;51.210;6.976;2023-07-16T08:07:51;28.80;66.90
36384;DHT22;22418;51.210;6.976;2023-07-16T08:10:23;28.60;68.10
36384;DHT22;22418;51.210;6.976;2023-07-16T08:12:54;28.30;67.80
36384;DHT22;22418;51.210;6.976;2023-07-16T08:15:24;28.40;68.50
36384;DHT22;22418;51.210;6.976;2023-07-16T08:17:55;28.30;68.40
36384;DHT22;22418;51.210;6.976;2023-07-16T08:20:29;28.10;68.50
36384;DHT22;22418;51.210;6.976;2023-07-16T08:23:00;27.80;69.40
36384;DHT22;22418;51.210;6.976;2023-07-16T08:25:30;27.60;70.30
36384;DHT22;22418;51.210;6.976;2023-07-16T08:28:02;27.50;70.30
36384;DHT22;22418;51.210;6.976;2023-07-16T08:30:33;27.60;70.10
36384;DHT22;22418;51.210;6.976;2023-07-16T08:33:04;27.60;70.30
36384;DHT22;22418;51.210;6.976;2023-07-16T08:35:35;27.30;69.70
36384;DHT22;22418;51.210;6.976;2023-07-16T08:38:05;27.20;69.90
36384;DHT22;22418;51.210;6.976;2023-07-16T08:40:40;27.20;71.30
36384;DHT22;22418;51.210;6.976;2023-07-16T08:43:10;27.10;70.80
36384;DHT22;22418;51.210;6.976;2023-07-16T08:45:44;27.10;70.40
36384;DHT22;22418;51.210;6.976;2023-07-16T08:48:17;26.90;70.00
36384;DHT22;22418;51.210;6.976;2023-07-16T08:50:50;26.80;71.50
36384;DHT22;22418;51.210;6.976;2023-07-16T08:53:21;26.80;72.10
36384;DHT22;22418;51.210;6.976;2023-07-16T08:55:51;26.80;71.40
36384;DHT22;22418;51.210;6.976;2023-07-16T08:58:23;26.70;70.60
36384;DHT22;22418;51.210;6.976;2023-07-16T09:00:55;26.80;70.00
36384;DHT22;22418;51.210;6.976;2023-07-16T09:03:26;26.80;70.60
36384;DHT22;22418;51.210;6.976;2023-07-16T09:05:57;26.80;70.10
36384;DHT22;22418;51.210;6.976;2023-07-16T09:08:27;27.00;70.30
36384;DHT22;22418;51.210;6.976;2023-07-16T09:10:59;27.10;71.20
36384;DHT22;22418;51.210;6.976;2023-07-16T09:13:29;27.20;69.90
36384;DHT22;22418;51.210;6.976;2023-07-16T09:16:00;27.40;70.70
36384;DHT22;22418;51.210;6.976;2023-07-16T09:18:31;27.60;70.20
36384;DHT22;22418;51.210;6.976;2023-07-16T09:21:02;27.70;68.90
36384;DHT22;22418;51.210;6.976;2023-07-16T09:23:33;27.80;68.30
36384;DHT22;22418;51.210;6.976;2023-07-16T09:26:04;27.90;67.70
36384;DHT22;22418;51.210;6.976;2023-07-16T09:28:35;27.70;67.60
36384;DHT22;22418;51.210;6.976;2023-07-16T09:31:07;27.80;69.10
36384;DHT22;22418;51.210;6.976;2023-07-16T09:33:37;27.90;69.10
36384;DHT22;22418;51.210;6.976;2023-07-16T09:36:08;27.90;68.40
36384;DHT22;22418;51.210;6.976;2023-07-16T09:38:39;27.60;68.50
36384;DHT22;22418;51.210;6.976;2023-07-16T09:41:10;27.50;69.20
36384;DHT22;22418;51.210;6.976;2023-07-16T09:43:41;27.40;69.10
36384;DHT22;22418;51.210;6.976;2023-07-16T09:46:12;27.20;70.00
36384;DHT22;22418;51.210;6.976;2023-07-16T09:48:43;26.80;69.20
36384;DHT22;22418;51.210;6.976;2023-07-16T09:51:14;26.70;70.40
36384;DHT22;22418;51.210;6.976;2023-07-16T09:53:46;26.60;70.30
36384;DHT22;22418;51.210;6.976;2023-07-16T09:56:18;26.30;71.40
36384;DHT22;22418;51.210;6.976;2023-07-16T09:58:50;26.30;72.30
36384;DHT22;22418;51.210;6.976;2023-07-16T10:01:21;26.30;71.90
36384;DHT22;22418;51.210;6.976;2023-07-16T10:03:52;26.30;71.00
36384;DHT22;22418;51.210;6.976;2023-07-16T10:06:23;26.40;71.50
36384;DHT22;22418;51.210;6.976;2023-07-16T10:08:53;26.40;71.60
36384;DHT22;22418;51.210;6.976;2023-07-16T10:11:24;26.50;71.60
36384;DHT22;22418;51.210;6.976;2023-07-16T10:13:54;26.50;70.80
36384;DHT22;22418;51.210;6.976;2023-07-16T10:16:25;26.20;72.10
36384;DHT22;22418;51.210;6.976;2023-07-16T10:18:58;26.00;73.10
36384;DHT22;22418;51.210;6.976;2023-07-16T10:21:36;26.00;73.40
36384;DHT22;22418;51.210;6.976;2023-07-16T10:24:16;26.00;74.00
36384;DHT22;22418;51.210;6.976;2023-07-16T10:26:47;26.10;73.90
36384;DHT22;22418;51.210;6.976;2023-07-16T10:29:18;26.20;74.40
36384;DHT22;22418;51.210;6.976;2023-07-16T10:31:50;26.20;75.00
36384;DHT22;22418;51.210;6.976;2023-07-16T10:34:22;26.20;73.20
36384;DHT22;22418;51.210;6.976;2023-07-16T10:36:53;26.10;73.80
36384;DHT22;22418;51.210;6.976;2023-07-16T10:39:24;26.10;74.30
36384;DHT22;22418;51.210;6.976;2023-07-16T10:41:54;26.00;73.30
36384;DHT22;22418;51.210;6.976;2023-07-16T10:44:27;25.90;74.20
36384;DHT22;22418;51.210;6.976;2023-07-16T10:46:58;26.00;74.50
36384;DHT22;22418;51.210;6.976;2023-07-16T10:49:29;25.80;74.60
36384;DHT22;22418;51.210;6.976;2023-07-16T10:52:00;25.80;75.20
36384;DHT22;22418;51.210;6.976;2023-07-16T10:54:31;25.90;74.90
36384;DHT22;22418;51.210;6.976;2023-07-16T10:57:04;26.00;74.60
36384;DHT22;22418;51.210;6.976;2023-07-16T10:59:39;26.20;74.30
36384;DHT22;22418;51.210;6.976;2023-07-16T11:02:12;26.30;74.20
36384;DHT22;22418;51.210;6.976;2023-07-16T11:04:45;26.20;73.70
36384;DHT22;22418;51.210;6.976;2023-07-16T11:07:16;26.10;73.40
36384;DHT22;22418;51.210;6.976;2023-07-16T11:09:48;26.10;73.40
36384;DHT22;22418;51.210;6.976;2023-07-16T11:12:21;26.00;73.30
36384;DHT22;22418;51.210;6.976;2023-07-16T11:14:53;26.00;72.80
36384;DHT22;22418;51.210;6.976;2023-07-16T11:17:24;26.00;73.30
36384;DHT22;22418;51.210;6.976;2023-07-16T11:19:55;26.10;73.10
36384;DHT22;22418;51.210;6.976;2023-07-16T11:22:26;26.00;73.60
36384;DHT22;22418;51.210;6.976;2023-07-16T11:24:57;25.90;74.00
36384;DHT22;22418;51.210;6.976;2023-07-16T11:27:31;25.80;74.50
36384;DHT22;22418;51.210;6.976;2023-07-16T11:30:02;25.80;74.60
36384;DHT22;22418;51.210;6.976;2023-07-16T11:32:36;25.80;74.80
36384;DHT22;22418;51.210;6.976;2023-07-16T11:35:10;25.80;73.50
36384;DHT22;22418;51.210;6.976;2023-07-16T11:37:41;25.70;74.60
36384;DHT22;22418;51.210;6.976;2023-07-16T11:40:19;25.70;74.50
36384;DHT22;22418;51.210;6.976;2023-07-16T11:42:50;25.80;75.20
36384;DHT22;22418;51.210;6.976;2023-07-16T11:45:24;25.80;73.10
36384;DHT22;22418;51.210;6.976;2023-07-16T11:47:56;25.90;73.90
36384;DHT22;22418;51.210;6.976;2023-07-16T11:50:27;25.80;75.00
36384;DHT22;22418;51.210;6.976;2023-07-16T11:53:00;25.80;73.30
36384;DHT22;22418;51.210;6.976;2023-07-16T11:55:32;25.80;74.30
36384;DHT22;22418;51.210;6.976;2023-07-16T11:58:02;25.70;74.40
36384;DHT22;22418;51.210;6.976;2023-07-16T12:00:33;25.60;73.60
36384;DHT22;22418;51.210;6.976;2023-07-16T12:03:04;25.50;73.90
36384;DHT22;22418;51.210;6.976;2023-07-16T12:05:34;25.40;74.40
36384;DHT22;22418;51.210;6.976;2023-07-16T12:08:05;25.40;74.80
36384;DHT22;22418;51.210;6.976;2023-07-16T12:10:35;25.50;74.70
36384;DHT22;22418;51.210;6.976;2023-07-16T12:13:06;25.60;75.50
36384;DHT22;22418;51.210;6.976;2023-07-16T12:15:37;25.60;75.80
36384;DHT22;22418;51.210;6.976;2023-07-16T12:18:07;25.50;75.60
36384;DHT22;22418;51.210;6.976;2023-07-16T12:20:38;25.50;75.80
36384;DHT22;22418;51.210;6.976;2023-07-16T12:23:10;25.50;76.10
36384;DHT22;22418;51.210;6.976;2023-07-16T12:25:40;25.50;75.80
36384;DHT22;22418;51.210;6.976;2023-07-16T12:28:11;25.60;76.20
36384;DHT22;22418;51.210;6.976;2023-07-16T12:30:42;25.60;75.50
36384;DHT22;22418;51.210;6.976;2023-07-16T12:33:13;25.60;75.40
36384;DHT22;22418;51.210;6.976;2023-07-16T12:35:43;25.50;75.20
36384;DHT22;22418;51.210;6.976;2023-07-16T12:38:14;25.50;74.70
36384;DHT22;22418;51.210;6.976;2023-07-16T12:40:45;25.50;74.60
36384;DHT22;22418;51.210;6.976;2023-07-16T12:43:15;25.60;74.50
36384;DHT22;22418;51.210;6.976;2023-07-16T12:45:46;25.70;75.30
36384;DHT22;22418;51.210;6.976;2023-07-16T12:48:16;25.70;75.00
36384;DHT22;22418;51.210;6.976;2023-07-16T12:50:49;25.70;75.40
36384;DHT22;22418;51.210;6.976;2023-07-16T12:53:20;25.60;75.70
36384;DHT22;22418;51.210;6.976;2023-07-16T12:55:50;25.50;74.80
36384;DHT22;22418;51.210;6.976;2023-07-16T12:58:22;25.50;75.30
36384;DHT22;22418;51.210;6.976;2023-07-16T13:00:52;25.50;75.80
36384;DHT22;22418;51.210;6.976;2023-07-16T13:03:23;25.30;75.10
36384;DHT22;22418;51.210;6.976;2023-07-16T13:05:54;25.20;75.00
36384;DHT22;22418;51.210;6.976;2023-07-16T13:08:24;25.10;75.10
36384;DHT22;22418;51.210;6.976;2023-07-16T13:10:55;25.10;75.40
36384;DHT22;22418;51.210;6.976;2023-07-16T13:13:25;25.30;74.80
36384;DHT22;22418;51.210;6.976;2023-07-16T13:15:56;25.40;74.20
36384;DHT22;22418;51.210;6.976;2023-07-16T13:18:27;25.40;74.40
36384;DHT22;22418;51.210;6.976;2023-07-16T13:20:58;25.40;74.30
36384;DHT22;22418;51.210;6.976;2023-07-16T13:23:29;25.40;75.00
36384;DHT22;22418;51.210;6.976;2023-07-16T13:25:59;25.50;74.20
36384;DHT22;22418;51.210;6.976;2023-07-16T13:28:30;25.60;74.30
36384;DHT22;22418;51.210;6.976;2023-07-16T13:31:00;25.70;74.80
36384;DHT22;22418;51.210;6.976;2023-07-16T13:33:31;25.70;74.70
36384;DHT22;22418;51.210;6.976;2023-07-16T13:36:02;25.70;74.20
36384;DHT22;22418;51.210;6.976;2023-07-16T13:38:34;25.70;74.60
36384;DHT22;22418;51.210;6.976;2023-07-16T13:41:05;25.70;74.60
36384;DHT22;22418;51.210;6.976;2023-07-16T13:43:35;25.80;74.00
36384;DHT22;22418;51.210;6.976;2023-07-16T13:46:06;25.80;73.80
36384;DHT22;22418;51.210;6.976;2023-07-16T13:48:37;25.80;74.40
36384;DHT22;22418;51.210;6.976;2023-07-16T13:51:07;25.80;73.50
36384;DHT22;22418;51.210;6.976;2023-07-16T13:53:38;25.80;73.30
36384;DHT22;22418;51.210;6.976;2023-07-16T13:56:09;25.80;73.90
36384;DHT22;22418;51.210;6.976;2023-07-16T13:58:39;25.70;74.00
36384;DHT22;22418;51.210;6.976;2023-07-16T14:01:11;25.60;74.50
36384;DHT22;22418;51.210;6.976;2023-07-16T14:03:41;25.70;75.20
36384;DHT22;22418;51.210;6.976;2023-07-16T14:06:12;25.70;75.00
36384;DHT22;22418;51.210;6.976;2023-07-16T14:08:42;25.70;75.00
36384;DHT22;22418;51.210;6.976;2023-07-16T14:11:13;25.80;75.10
36384;DHT22;22418;51.210;6.976;2023-07-16T14:13:44;25.70;74.70
36384;DHT22;22418;51.210;6.976;2023-07-16T14:16:14;25.80;75.10
36384;DHT22;22418;51.210;6.976;2023-07-16T14:18:49;25.70;75.20
36384;DHT22;22418;51.210;6.976;2023-07-16T14:21:20;25.70;75.90
36384;DHT22;22418;51.210;6.976;2023-07-16T14:23:50;25.70;76.30
36384;DHT22;22418;51.210;6.976;2023-07-16T14:26:21;25.60;76.20
36384;DHT22;22418;51.210;6.976;2023-07-16T14:28:52;25.50;76.30
36384;DHT22;22418;51.210;6.976;2023-07-16T14:31:22;25.60;76.20
36384;DHT22;22418;51.210;6.976;2023-07-16T14:33:53;25.60;76.40
36384;DHT22;22418;51.210;6.976;2023-07-16T14:36:24;25.70;75.50
36384;DHT22;22418;51.210;6.976;2023-07-16T14:38:55;25.70;75.90
36384;DHT22;22418;51.210;6.976;2023-07-16T14:41:25;25.60;76.60
36384;DHT22;22418;51.210;6.976;2023-07-16T14:43:56;25.50;76.70
36384;DHT22;22418;51.210;6.976;2023-07-16T14:46:26;25.40;76.70
36384;DHT22;22418;51.210;6.976;2023-07-16T14:48:57;25.40;77.50
36384;DHT22;22418;51.210;6.976;2023-07-16T14:51:28;25.30;77.20
36384;DHT22;22418;51.210;6.976;2023-07-16T14:54:00;25.20;77.10
36384;DHT22;22418;51.210;6.976;2023-07-16T14:56:30;25.20;77.00
36384;DHT22;22418;51.210;6.976;2023-07-16T14:59:01;25.20;76.70
36384;DHT22;22418;51.210;6.976;2023-07-16T15:01:32;25.30;76.90
36384;DHT22;22418;51.210;6.976;2023-07-16T15:04:03;25.30;77.00
36384;DHT22;22418;51.210;6.976;2023-07-16T15:06:35;25.30;78.00
36384;DHT22;22418;51.210;6.976;2023-07-16T15:09:06;25.20;78.20
36384;DHT22;22418;51.210;6.976;2023-07-16T15:11:37;25.20;78.00
36384;DHT22;22418;51.210;6.976;2023-07-16T15:14:08;25.20;77.60
36384;DHT22;22418;51.210;6.976;2023-07-16T15:16:39;25.20;78.40
36384;DHT22;22418;51.210;6.976;2023-07-16T15:19:09;25.30;78.50
36384;DHT22;22418;51.210;6.976;2023-07-16T15:21:40;25.20;78.60
36384;DHT22;22418;51.210;6.976;2023-07-16T15:24:10;25.20;78.60
36384;DHT22;22418;51.210;6.976;2023-07-16T15:26:43;25.20;78.70
36384;DHT22;22418;51.210;6.976;2023-07-16T15:29:13;25.30;77.90
36384;DHT22;22418;51.210;6.976;2023-07-16T15:31:44;25.30;78.00
36384;DHT22;22418;51.210;6.976;2023-07-16T15:34:14;25.30;78.40
36384;DHT22;22418;51.210;6.976;2023-07-16T15:36:45;25.20;77.70
36384;DHT22;22418;51.210;6.976;2023-07-16T15:39:16;25.20;77.80
36384;DHT22;22418;51.210;6.976;2023-07-16T15:41:48;25.20;78.20
36384;DHT22;22418;51.210;6.976;2023-07-16T15:44:18;25.30;78.20
36384;DHT22;22418;51.210;6.976;2023-07-16T15:46:50;25.30;78.40
36384;DHT22;22418;51.210;6.976;2023-07-16T15:49:20;25.30;78.10
36384;DHT22;22418;51.210;6.976;2023-07-16T15:51:51;25.30;78.40
36384;DHT22;22418;51.210;6.976;2023-07-16T15:54:22;25.30;79.30
36384;DHT22;22418;51.210;6.976;2023-07-16T15:56:52;25.20;80.10
36384;DHT22;22418;51.210;6.976;2023-07-16T15:59:23;25.10;80.30